createdAt,value
2018-11-11T00:01:44.621Z,2.70
2018-11-11T00:04:18.314Z,3.30
2018-11-11T00:06:46.810Z,2.73
2018-11-11T00:09:16.093Z,2.63
2018-11-11T00:11:50.319Z,2.87
2018-11-11T00:14:18.625Z,3.33
2018-11-11T00:16:46.867Z,3.50
2018-11-11T00:19:15.082Z,3.57
2018-11-11T00:21:43.345Z,3.33
2018-11-11T00:24:22.626Z,3.10
2018-11-11T00:26:51.852Z,2.30
2018-11-11T00:29:26.474Z,2.67
2018-11-11T00:32:11.395Z,2.37
2018-11-11T00:34:39.619Z,3.07
2018-11-11T00:37:07.805Z,2.50
2018-11-11T00:40:00.466Z,2.53
2018-11-11T00:42:28.728Z,2.50
2018-11-11T00:44:56.922Z,2.80
2018-11-11T01:07:42.142Z,2.83
2018-11-11T01:10:17.645Z,2.40
2018-11-11T01:12:46.267Z,2.63
2018-11-11T01:15:15.691Z,2.30
2018-11-11T01:17:43.913Z,2.87
2018-11-11T01:20:13.442Z,2.03
2018-11-11T01:22:42.047Z,2.70
2018-11-11T01:25:14.928Z,2.10
2018-11-11T01:27:43.253Z,2.10
2018-11-11T01:30:12.548Z,2.17
2018-11-11T01:32:42.785Z,1.97
2018-11-11T01:35:13.146Z,1.70
2018-11-11T01:37:41.943Z,1.73
2018-11-11T01:40:10.218Z,2.53
2018-11-11T01:42:38.582Z,1.57
2018-11-11T01:45:10.009Z,2.30
2018-11-11T01:47:38.221Z,1.43
2018-11-11T01:50:07.675Z,2.17
2018-11-11T01:52:35.889Z,2.17
2018-11-11T01:55:05.218Z,2.37
2018-11-11T01:57:34.431Z,2.40
2018-11-11T02:00:02.743Z,2.00
2018-11-11T02:02:31.035Z,2.20
2018-11-11T02:05:07.313Z,2.37
2018-11-11T02:07:35.529Z,1.80
2018-11-11T02:10:04.154Z,1.73
2018-11-11T02:12:32.369Z,1.97
2018-11-11T02:15:00.579Z,2.23
2018-11-11T02:17:32.845Z,1.70
2018-11-11T02:20:01.099Z,1.67
2018-11-11T02:22:29.313Z,1.97
2018-11-11T02:24:57.534Z,2.00
2018-11-11T02:27:25.759Z,1.87
2018-11-11T02:29:53.982Z,1.60
2018-11-11T02:32:22.186Z,1.20
2018-11-11T02:34:50.409Z,1.60
2018-11-11T02:37:18.626Z,1.40
2018-11-11T02:39:46.805Z,1.17
2018-11-11T02:42:15.036Z,1.17
2018-11-11T02:44:43.259Z,1.63
2018-11-11T02:47:11.465Z,1.30
2018-11-11T02:49:47.302Z,1.50
2018-11-11T02:52:15.505Z,1.30
2018-11-11T02:54:43.713Z,1.80
2018-11-11T02:57:11.926Z,1.80
2018-11-11T02:59:40.154Z,1.80
2018-11-11T03:02:08.358Z,1.70
2018-11-11T03:04:36.999Z,1.57
2018-11-11T03:07:05.342Z,1.17
2018-11-11T03:09:37.398Z,1.23
2018-11-11T03:12:05.630Z,1.33
2018-11-11T03:14:33.840Z,1.77
2018-11-11T03:17:02.072Z,1.17
2018-11-11T03:19:30.269Z,1.40
2018-11-11T03:21:58.500Z,1.53
2018-11-11T03:24:26.706Z,1.63
2018-11-11T03:26:54.939Z,2.10
2018-11-11T03:29:29.958Z,1.67
2018-11-11T03:31:58.169Z,1.70
2018-11-11T03:34:26.401Z,2.13
2018-11-11T03:36:54.641Z,1.80
2018-11-11T03:39:22.863Z,1.43
2018-11-11T03:41:51.082Z,1.87
2018-11-11T03:44:19.265Z,2.00
2018-11-11T03:46:47.509Z,1.67
2018-11-11T03:49:15.726Z,1.70
2018-11-11T03:51:43.934Z,1.93
2018-11-11T03:54:22.958Z,1.87
2018-11-11T03:56:51.185Z,2.10
2018-11-11T03:59:19.415Z,1.90
2018-11-11T04:01:47.631Z,1.93
2018-11-11T04:04:15.842Z,2.03
2018-11-11T04:06:44.037Z,1.60
2018-11-11T04:09:13.166Z,1.60
2018-11-11T04:11:41.666Z,2.00
2018-11-11T04:14:10.662Z,2.20
2018-11-11T04:16:39.135Z,1.87
2018-11-11T04:19:08.039Z,2.23
2018-11-11T04:21:36.279Z,2.20
2018-11-11T04:24:04.545Z,2.67
2018-11-11T04:26:32.769Z,2.20
2018-11-11T04:29:01.002Z,2.10
2018-11-11T04:31:29.224Z,2.30
2018-11-11T04:33:57.458Z,1.83
2018-11-11T04:36:25.662Z,2.50
2018-11-11T04:39:04.948Z,2.27
2018-11-11T04:41:33.122Z,2.23
2018-11-11T04:44:01.335Z,2.00
2018-11-11T04:46:29.543Z,2.50
2018-11-11T04:49:16.305Z,2.50
2018-11-11T04:51:44.570Z,2.20
2018-11-11T04:54:12.787Z,2.10
2018-11-11T04:56:41.035Z,2.33
2018-11-11T04:59:09.246Z,2.07
2018-11-11T05:01:37.553Z,2.20
2018-11-11T05:04:05.705Z,1.50
2018-11-11T05:06:33.922Z,2.07
2018-11-11T05:09:02.122Z,2.27
2018-11-11T05:11:30.343Z,2.23
2018-11-11T05:13:58.547Z,2.57
2018-11-11T05:16:26.766Z,2.20
2018-11-11T05:18:54.972Z,2.10
2018-11-11T05:21:23.170Z,2.13
2018-11-11T05:23:51.370Z,2.17
2018-11-11T05:26:19.590Z,2.27
2018-11-11T05:28:54.025Z,1.80
2018-11-11T05:31:22.234Z,2.47
2018-11-11T05:33:50.446Z,2.17
2018-11-11T05:36:18.671Z,2.33
2018-11-11T05:38:46.902Z,2.13
2018-11-11T05:41:15.101Z,2.70
2018-11-11T05:43:43.298Z,2.80
2018-11-11T05:46:11.508Z,2.73
2018-11-11T05:48:39.697Z,2.90
2018-11-11T05:51:07.881Z,2.47
2018-11-11T05:53:36.084Z,2.30
2018-11-11T05:56:04.317Z,2.13
2018-11-11T05:58:32.525Z,1.67
2018-11-11T06:01:00.782Z,2.20
2018-11-11T06:03:28.994Z,2.07
2018-11-11T06:05:57.202Z,2.30
2018-11-11T06:08:25.410Z,2.13
2018-11-11T06:10:53.594Z,2.00
2018-11-11T06:13:21.813Z,2.07
2018-11-11T06:15:50.001Z,2.70
2018-11-11T06:18:18.206Z,2.37
2018-11-11T06:20:46.445Z,2.07
2018-11-11T06:23:15.746Z,1.97
2018-11-11T06:25:45.333Z,1.97
2018-11-11T06:28:14.537Z,2.20
2018-11-11T06:30:42.758Z,2.03
2018-11-11T06:33:10.955Z,1.90
2018-11-11T06:35:39.134Z,2.30
2018-11-11T06:38:07.358Z,1.87
2018-11-11T06:40:35.543Z,1.43
2018-11-11T06:43:03.830Z,1.40
2018-11-11T06:45:32.023Z,1.70
2018-11-11T06:48:00.238Z,1.90
2018-11-11T06:50:28.431Z,1.57
2018-11-11T06:52:57.762Z,1.87
2018-11-11T06:55:25.940Z,1.90
2018-11-11T06:57:54.187Z,1.83
2018-11-11T07:00:22.485Z,2.00
2018-11-11T07:03:01.882Z,1.37
2018-11-11T07:05:31.104Z,2.00
2018-11-11T07:07:59.309Z,1.57
2018-11-11T07:10:27.602Z,1.73
2018-11-11T07:12:55.814Z,1.80
2018-11-11T07:15:24.040Z,1.03
2018-11-11T07:17:52.276Z,1.50
2018-11-11T07:20:20.485Z,1.73
2018-11-11T07:22:48.675Z,1.73
2018-11-11T07:25:16.913Z,1.70
2018-11-11T07:27:45.158Z,1.60
2018-11-11T07:30:13.454Z,1.53
2018-11-11T07:32:41.727Z,1.60
2018-11-11T07:35:10.802Z,1.63
2018-11-11T07:37:39.129Z,1.47
2018-11-11T07:40:10.519Z,1.30
2018-11-11T07:42:38.747Z,1.43
2018-11-11T07:45:07.093Z,1.20
2018-11-11T07:47:37.288Z,1.50
2018-11-11T07:50:08.551Z,1.60
2018-11-11T07:52:37.225Z,1.53
2018-11-11T07:55:06.286Z,1.60
2018-11-11T07:57:34.377Z,1.40
2018-11-11T08:00:02.612Z,1.13
2018-11-11T08:02:30.916Z,0.93
2018-11-11T08:04:59.174Z,1.33
2018-11-11T08:07:27.657Z,1.50
2018-11-11T08:09:55.919Z,1.50
2018-11-11T08:12:24.189Z,1.50
2018-11-11T08:14:52.512Z,1.50
2018-11-11T08:17:21.801Z,1.60
2018-11-11T08:19:50.058Z,0.80
2018-11-11T08:22:18.333Z,1.47
2018-11-11T08:24:46.605Z,1.30
2018-11-11T08:27:14.982Z,1.53
2018-11-11T08:29:43.274Z,2.07
2018-11-11T08:32:11.641Z,1.27
2018-11-11T08:34:39.914Z,1.37
2018-11-11T08:37:08.204Z,1.33
2018-11-11T08:39:36.480Z,1.30
2018-11-11T08:42:04.940Z,1.27
2018-11-11T08:44:33.224Z,1.10
2018-11-11T08:47:01.519Z,1.70
2018-11-11T08:49:30.806Z,1.20
2018-11-11T08:51:59.087Z,2.00
2018-11-11T08:54:32.665Z,1.40
2018-11-11T08:57:00.977Z,1.50
2018-11-11T08:59:29.277Z,2.20
2018-11-11T09:01:57.529Z,1.00
2018-11-11T09:04:25.815Z,1.73
2018-11-11T09:06:54.048Z,1.77
2018-11-11T09:09:22.269Z,2.07
2018-11-11T09:11:50.478Z,1.73
2018-11-11T09:14:18.686Z,1.43
2018-11-11T09:16:46.948Z,1.23
2018-11-11T09:19:15.333Z,1.70
2018-11-11T09:21:43.619Z,1.43
2018-11-11T09:24:11.895Z,1.50
2018-11-11T09:26:40.122Z,1.33
2018-11-11T09:29:08.430Z,0.90
2018-11-11T09:31:36.621Z,1.50
2018-11-11T09:34:04.918Z,1.10
2018-11-11T09:36:33.102Z,1.53
2018-11-11T09:39:01.348Z,1.17
2018-11-11T09:41:29.546Z,1.10
2018-11-11T09:43:57.787Z,1.17
2018-11-11T09:46:26.004Z,2.00
2018-11-11T09:48:54.213Z,1.17
2018-11-11T09:51:38.793Z,1.10
2018-11-11T09:54:07.505Z,1.53
2018-11-11T09:56:35.813Z,1.50
2018-11-11T09:59:04.163Z,0.87
2018-11-11T10:01:32.435Z,1.30
2018-11-11T10:04:06.808Z,1.20
2018-11-11T10:06:42.190Z,1.33
2018-11-11T10:11:20.033Z,1.23
2018-11-11T10:14:07.574Z,1.37
2018-11-11T10:16:45.335Z,1.57
2018-11-11T10:19:22.377Z,1.10
2018-11-11T10:23:58.200Z,1.67
2018-11-11T10:26:31.251Z,1.50
2018-11-11T10:29:08.964Z,1.70
2018-11-11T10:31:49.189Z,1.40
2018-11-11T10:34:32.224Z,1.47
2018-11-11T10:37:05.512Z,1.77
2018-11-11T10:39:43.718Z,2.20
2018-11-11T10:42:56.709Z,1.53
2018-11-11T10:45:30.629Z,1.93
2018-11-11T10:48:09.485Z,1.70
2018-11-11T10:50:40.969Z,2.13
2018-11-11T10:53:09.309Z,2.47
2018-11-11T10:55:37.530Z,2.73
2018-11-11T10:58:06.858Z,2.17
2018-11-11T11:00:40.629Z,1.93
2018-11-11T11:03:14.234Z,1.77
2018-11-11T11:05:42.494Z,2.27
2018-11-11T11:08:10.803Z,2.93
2018-11-11T11:10:39.086Z,2.53
2018-11-11T11:13:07.443Z,1.83
2018-11-11T11:15:35.686Z,1.67
2018-11-11T11:18:03.938Z,1.33
2018-11-11T11:20:32.250Z,1.90
2018-11-11T11:23:00.560Z,2.17
2018-11-11T11:25:28.821Z,2.87
2018-11-11T11:27:57.042Z,2.30
2018-11-11T11:30:25.357Z,1.90
2018-11-11T11:32:53.622Z,1.83
2018-11-11T11:35:22.951Z,2.00
2018-11-11T11:37:51.161Z,2.13
2018-11-11T11:40:19.372Z,1.87
2018-11-11T11:42:48.694Z,2.10
2018-11-11T11:45:16.895Z,1.60
2018-11-11T11:47:45.137Z,1.93
2018-11-11T11:50:13.884Z,1.20
2018-11-11T11:52:42.695Z,1.77
2018-11-11T11:55:12.674Z,2.07
2018-11-11T11:57:41.156Z,1.50
2018-11-11T12:00:12.202Z,1.63
2018-11-11T12:02:40.914Z,2.07
2018-11-11T12:05:10.597Z,2.07
2018-11-11T12:07:38.978Z,1.53
2018-11-11T12:10:09.547Z,1.60
2018-11-11T12:12:37.976Z,1.93
2018-11-11T12:15:07.517Z,1.60
2018-11-11T12:17:35.867Z,1.47
2018-11-11T12:20:04.479Z,1.30
2018-11-11T12:22:32.806Z,2.37
2018-11-11T12:25:01.158Z,2.20
2018-11-11T12:27:29.597Z,1.67
2018-11-11T12:29:58.882Z,1.87
2018-11-11T12:32:27.284Z,1.67
2018-11-11T12:34:55.737Z,1.90
2018-11-11T12:37:23.990Z,1.90
2018-11-11T12:39:52.345Z,1.90
2018-11-11T12:42:20.530Z,1.57
2018-11-11T12:44:48.943Z,2.03
2018-11-11T12:47:17.105Z,1.40
2018-11-11T12:49:45.369Z,1.93
2018-11-11T12:52:13.646Z,2.13
2018-11-11T12:54:41.998Z,1.90
2018-11-11T12:57:10.161Z,2.03
2018-11-11T12:59:38.430Z,1.77
2018-11-11T13:02:06.709Z,2.13
2018-11-11T13:04:34.987Z,2.50
2018-11-11T13:07:03.398Z,2.50
2018-11-11T13:09:31.677Z,1.97
2018-11-11T13:12:00.018Z,2.00
2018-11-11T13:14:28.792Z,2.00
2018-11-11T13:16:57.030Z,2.30
2018-11-11T13:19:25.383Z,2.23
2018-11-11T13:21:53.790Z,2.40
2018-11-11T13:24:22.078Z,2.10
2018-11-11T13:26:50.363Z,2.53
2018-11-11T13:29:18.702Z,2.53
2018-11-11T13:31:48.092Z,2.63
2018-11-11T13:34:16.311Z,2.57
2018-11-11T13:36:44.550Z,2.40
2018-11-11T13:39:13.914Z,1.93
2018-11-11T13:41:43.137Z,3.00
2018-11-11T13:44:11.561Z,2.03
2018-11-11T13:46:40.074Z,1.90
2018-11-11T13:49:08.182Z,1.27
2018-11-11T13:51:37.444Z,1.77
2018-11-11T13:54:06.346Z,1.93
2018-11-11T13:56:34.576Z,1.93
2018-11-11T13:59:02.850Z,1.80
2018-11-11T14:01:31.205Z,1.53
2018-11-11T14:03:59.370Z,1.80
2018-11-11T14:06:27.617Z,1.63
2018-11-11T14:08:55.860Z,1.70
2018-11-11T14:11:24.130Z,1.50
2018-11-11T14:13:52.371Z,2.07
2018-11-11T14:16:20.616Z,1.97
2018-11-11T14:18:48.957Z,1.53
2018-11-11T14:21:17.033Z,1.83
2018-11-11T14:23:45.300Z,1.70
2018-11-11T14:26:13.606Z,1.47
2018-11-11T14:28:41.789Z,1.90
2018-11-11T14:31:10.045Z,0.97
2018-11-11T14:33:38.284Z,1.67
2018-11-11T14:36:06.944Z,1.77
2018-11-11T14:38:35.268Z,2.23
2018-11-11T14:41:03.511Z,2.10
2018-11-11T14:43:31.783Z,2.47
2018-11-11T14:46:00.159Z,2.77
2018-11-11T14:48:29.372Z,2.27
2018-11-11T14:50:57.656Z,2.30
2018-11-11T14:53:25.914Z,2.77
2018-11-11T14:55:54.225Z,2.43
2018-11-11T14:58:22.540Z,2.37
2018-11-11T15:00:50.784Z,2.37
2018-11-11T15:03:19.717Z,2.07
2018-11-11T15:05:49.403Z,2.53
2018-11-11T15:08:17.750Z,2.10
2018-11-11T15:10:47.073Z,2.47
2018-11-11T15:13:16.246Z,2.03
2018-11-11T15:15:44.410Z,2.23
2018-11-11T15:18:12.670Z,1.77
2018-11-11T15:20:41.070Z,3.10
2018-11-11T15:23:09.817Z,2.87
2018-11-11T15:25:38.030Z,2.07
2018-11-11T15:28:06.866Z,2.30
2018-11-11T15:30:36.271Z,2.57
2018-11-11T15:33:05.163Z,2.03
2018-11-11T15:35:33.401Z,2.67
2018-11-11T15:38:01.658Z,1.90
2018-11-11T15:40:31.433Z,1.93
2018-11-11T15:42:59.914Z,2.90
2018-11-11T15:45:30.196Z,2.27
2018-11-11T15:47:58.715Z,2.47
2018-11-11T15:50:33.817Z,3.17
2018-11-11T15:53:03.413Z,2.83
2018-11-11T15:55:32.831Z,2.60
2018-11-11T15:58:01.197Z,1.90
2018-11-11T16:00:30.846Z,2.20
2018-11-11T16:02:59.104Z,2.17
2018-11-11T16:05:27.374Z,2.07
2018-11-11T16:07:56.385Z,2.60
2018-11-11T16:10:25.958Z,2.47
2018-11-11T16:12:56.295Z,2.23
2018-11-11T16:15:28.561Z,2.37
2018-11-11T16:18:00.238Z,2.60
2018-11-11T16:20:29.399Z,3.10
2018-11-11T16:22:58.533Z,2.63
2018-11-11T16:25:26.813Z,2.87
2018-11-11T16:27:55.158Z,2.87
2018-11-11T16:30:24.661Z,2.77
2018-11-11T16:32:53.418Z,2.73
2018-11-11T16:35:22.956Z,4.00
2018-11-11T16:37:51.319Z,3.17
2018-11-11T16:40:22.791Z,3.00
2018-11-11T16:42:51.474Z,3.27
2018-11-11T16:45:20.990Z,3.33
2018-11-11T16:47:49.300Z,3.40
2018-11-11T16:50:19.775Z,3.10
2018-11-11T16:52:48.812Z,3.67
2018-11-11T16:55:18.225Z,2.73
2018-11-11T16:57:46.514Z,2.27
2018-11-11T17:00:26.505Z,1.90
2018-11-11T17:02:55.415Z,1.53
2018-11-11T17:05:29.611Z,1.50
2018-11-11T17:07:57.980Z,0.97
2018-11-11T17:10:28.445Z,1.27
2018-11-11T17:12:57.934Z,1.37
2018-11-11T17:15:27.626Z,1.10
2018-11-11T17:17:55.857Z,1.37
2018-11-11T17:20:24.946Z,0.67
2018-11-11T17:22:54.308Z,1.00
2018-11-11T17:25:23.444Z,1.03
2018-11-11T17:27:51.772Z,1.10
2018-11-11T17:30:21.282Z,1.33
2018-11-11T17:32:50.347Z,1.63
2018-11-11T17:35:18.517Z,1.40
2018-11-11T17:37:47.964Z,1.17
2018-11-11T17:40:23.394Z,1.20
2018-11-11T17:42:52.514Z,1.30
2018-11-11T17:45:23.898Z,1.47
2018-11-11T17:47:53.753Z,1.30
2018-11-11T17:50:30.642Z,1.40
2018-11-11T17:52:59.728Z,1.67
2018-11-11T17:55:28.608Z,1.57
2018-11-11T17:57:56.785Z,1.70
2018-11-11T18:00:27.087Z,2.13
2018-11-11T18:02:55.929Z,2.20
2018-11-11T18:05:26.275Z,1.07
2018-11-11T18:07:55.629Z,0.97
2018-11-11T18:10:24.707Z,1.60
2018-11-11T18:12:53.034Z,2.17
2018-11-11T18:15:26.272Z,0.93
2018-11-11T18:17:54.563Z,1.03
2018-11-11T18:20:25.201Z,1.00
2018-11-11T18:22:54.450Z,0.50
2018-11-11T18:25:22.763Z,0.93
2018-11-11T18:27:51.163Z,1.03
2018-11-11T18:30:22.664Z,0.97
2018-11-11T18:32:50.945Z,1.00
2018-11-11T18:35:19.805Z,1.10
2018-11-11T18:37:52.994Z,1.30
2018-11-11T18:40:22.935Z,1.13
2018-11-11T18:42:52.232Z,1.23
2018-11-11T18:45:23.652Z,1.37
2018-11-11T18:47:54.234Z,1.37
2018-11-11T18:50:27.978Z,1.20
2018-11-11T18:52:58.295Z,1.83
2018-11-11T18:55:26.669Z,1.60
2018-11-11T18:57:55.187Z,2.40
2018-11-11T19:00:26.624Z,2.70
2018-11-11T19:02:55.677Z,2.33
2018-11-11T19:05:29.617Z,1.93
2018-11-11T19:07:58.223Z,2.30
2018-11-11T19:10:28.970Z,1.97
2018-11-11T19:12:59.967Z,2.20
2018-11-11T19:15:28.236Z,2.23
2018-11-11T19:17:56.498Z,2.30
2018-11-11T19:20:25.726Z,2.17
2018-11-11T19:22:54.004Z,2.47
2018-11-11T19:25:26.586Z,3.00
2018-11-11T19:27:55.584Z,2.27
2018-11-11T19:30:26.271Z,2.07
2018-11-11T19:32:55.012Z,2.07
2018-11-11T19:35:24.242Z,2.53
2018-11-11T19:37:53.802Z,2.83
2018-11-11T19:40:23.428Z,2.30
2018-11-11T19:42:52.728Z,2.40
2018-11-11T19:45:24.465Z,2.43
2018-11-11T19:47:52.831Z,2.33
2018-11-11T19:50:23.468Z,2.33
2018-11-11T19:52:52.669Z,1.93
2018-11-11T19:55:22.290Z,2.50
2018-11-11T19:57:50.691Z,2.60
2018-11-11T20:00:22.219Z,1.50
2018-11-11T20:02:52.159Z,2.40
2018-11-11T20:05:20.922Z,2.27
2018-11-11T20:07:52.595Z,2.17
2018-11-11T20:10:23.808Z,2.20
2018-11-11T20:12:54.316Z,1.87
2018-11-11T20:15:23.973Z,2.50
2018-11-11T20:17:52.322Z,3.23
2018-11-11T20:20:21.964Z,3.00
2018-11-11T20:22:50.326Z,2.67
2018-11-11T20:25:19.521Z,2.43
2018-11-11T20:27:51.616Z,2.57
2018-11-11T20:30:23.072Z,2.80
2018-11-11T20:32:51.417Z,2.43
2018-11-11T20:35:21.269Z,2.17
2018-11-11T20:37:49.478Z,2.80
2018-11-11T20:40:19.110Z,2.17
2018-11-11T20:42:47.924Z,2.90
2018-11-11T20:45:17.518Z,2.63
2018-11-11T20:47:46.537Z,2.20
2018-11-11T20:50:16.504Z,2.37
2018-11-11T20:52:45.622Z,2.33
2018-11-11T20:55:14.363Z,2.00
2018-11-11T20:57:42.778Z,2.20
2018-11-11T21:00:13.690Z,2.03
2018-11-11T21:02:43.082Z,1.77
2018-11-11T21:05:26.636Z,1.20
2018-11-11T21:07:56.024Z,1.47
2018-11-11T21:10:25.409Z,1.00
2018-11-11T21:12:53.699Z,1.57
2018-11-11T21:15:23.170Z,1.57
2018-11-11T21:17:51.577Z,1.43
2018-11-11T21:20:25.545Z,2.00
2018-11-11T21:22:54.266Z,2.73
2018-11-11T21:25:22.573Z,2.37
2018-11-11T21:27:51.478Z,2.30
2018-11-11T21:30:21.820Z,2.20
2018-11-11T21:32:50.396Z,2.37
2018-11-11T21:35:18.808Z,2.50
2018-11-11T21:37:47.176Z,2.97
2018-11-11T21:40:18.104Z,3.57
2018-11-11T21:42:48.209Z,3.30
2018-11-11T21:45:18.554Z,3.20
2018-11-11T21:47:47.020Z,2.57
2018-11-11T21:50:18.588Z,2.30
2018-11-11T21:52:56.155Z,2.37
2018-11-11T21:55:24.415Z,2.17
2018-11-11T21:57:52.634Z,2.20
2018-11-11T22:00:20.942Z,2.13
2018-11-11T22:02:49.196Z,2.00
2018-11-11T22:05:17.420Z,1.70
2018-11-11T22:07:45.735Z,1.60
2018-11-11T22:10:14.807Z,1.93
2018-11-11T22:12:45.089Z,1.93
2018-11-11T22:15:13.422Z,1.87
2018-11-11T22:17:42.722Z,1.50
2018-11-11T22:20:11.401Z,2.13
2018-11-11T22:22:40.082Z,1.83
2018-11-11T22:25:08.347Z,1.90
2018-11-11T22:27:36.943Z,2.30
2018-11-11T22:30:07.764Z,2.40
2018-11-11T22:32:36.052Z,1.87
2018-11-11T22:35:06.585Z,2.00
2018-11-11T22:37:34.814Z,1.90
2018-11-11T22:40:03.025Z,1.87
2018-11-11T22:42:33.396Z,1.90
2018-11-11T22:45:01.562Z,2.03
2018-11-11T22:47:29.794Z,1.30
2018-11-11T22:49:58.050Z,1.40
2018-11-11T22:52:26.355Z,1.70
2018-11-11T22:54:54.584Z,1.67
2018-11-11T22:57:22.883Z,1.70
2018-11-11T22:59:51.073Z,1.60
2018-11-11T23:02:19.295Z,1.30
2018-11-11T23:04:47.538Z,1.77
2018-11-11T23:07:15.939Z,1.97
2018-11-11T23:09:44.182Z,1.70
2018-11-11T23:12:12.431Z,1.77
2018-11-11T23:14:40.678Z,2.37
2018-11-11T23:17:08.933Z,2.37
2018-11-11T23:19:37.165Z,2.27
2018-11-11T23:22:05.540Z,2.00
2018-11-11T23:24:33.764Z,1.77
2018-11-11T23:27:01.974Z,1.43
2018-11-11T23:29:31.074Z,2.10
2018-11-11T23:31:59.484Z,1.97
2018-11-11T23:34:27.729Z,1.90
2018-11-11T23:36:56.041Z,1.90
2018-11-11T23:39:24.202Z,1.80
2018-11-11T23:41:52.422Z,1.80
2018-11-11T23:44:20.639Z,1.77
2018-11-11T23:46:48.890Z,1.77
2018-11-11T23:49:17.122Z,1.50
2018-11-11T23:51:45.347Z,1.70
2018-11-11T23:54:23.157Z,1.83
2018-11-11T23:56:51.430Z,2.00
2018-11-11T23:59:19.700Z,2.20
